Time;durP1;ratioP1;P1;durP2;ratioP2;P2;SDS_P1;SDS_P2;PMS_P1;PMS_P2;Temp;Humidity;BMP_temperature;BMP_pressure;BME280_temperature;BME280_humidity;BME280_pressure;Samples;Min_cycle;Max_cycle;Signal;HPM_P1;HPM_P2
2023/08/01 00:01:04;;;;;;;3.50;2.85;;;;;;;25.28;47.05;94761.88;6146417;28;111115;-60
2023/08/01 00:04:08;;;;;;;3.17;2.87;;;;;;;25.13;47.08;94752.59;6146004;28;110856;-60
2023/08/01 00:07:11;;;;;;;2.90;2.60;;;;;;;25.07;46.75;94754.72;6137294;28;109456;-60
2023/08/01 00:10:16;;;;;;;2.97;2.67;;;;;;;25.03;47.10;94761.03;6124533;28;110323;-61
2023/08/01 00:13:20;;;;;;;3.00;2.80;;;;;;;25.04;46.80;94757.28;6139943;28;110300;-60
2023/08/01 00:16:23;;;;;;;3.08;2.78;;;;;;;25.17;46.71;94753.50;6155214;28;109252;-60
2023/08/01 00:19:26;;;;;;;2.95;2.65;;;;;;;25.30;46.43;94756.97;6150572;28;109618;-61
2023/08/01 00:22:30;;;;;;;2.83;2.63;;;;;;;25.40;45.84;94759.25;6110068;28;109186;-60
2023/08/01 00:25:33;;;;;;;2.80;2.60;;;;;;;25.53;45.51;94754.66;6158270;28;109186;-60
2023/08/01 00:28:37;;;;;;;3.17;2.50;;;;;;;25.50;45.78;94750.75;6145355;28;109285;-60
2023/08/01 00:31:40;;;;;;;3.17;2.80;;;;;;;25.52;45.74;94756.56;6144405;28;110055;-60
2023/08/01 00:34:44;;;;;;;3.30;2.73;;;;;;;25.59;45.57;94758.72;6124337;28;110261;-64
2023/08/01 00:37:47;;;;;;;3.10;2.80;;;;;;;25.54;45.94;94764.28;6153482;28;109384;-64
2023/08/01 00:40:51;;;;;;;3.00;2.80;;;;;;;25.43;45.86;94755.13;6143823;28;109461;-68
2023/08/01 00:43:56;;;;;;;3.90;2.93;;;;;;;25.48;45.81;94755.69;6146513;28;109388;-65
2023/08/01 00:46:59;;;;;;;2.73;2.53;;;;;;;25.53;45.50;94758.13;6150528;28;109151;-64
2023/08/01 00:50:03;;;;;;;3.70;2.90;;;;;;;25.63;45.50;94762.28;6143281;28;110728;-64
2023/08/01 00:53:07;;;;;;;3.30;2.90;;;;;;;25.59;45.41;94756.81;6143003;28;110116;-65
2023/08/01 00:56:10;;;;;;;2.80;2.60;;;;;;;25.63;45.77;94757.69;6146963;28;109957;-64
2023/08/01 00:59:14;;;;;;;3.20;2.90;;;;;;;25.64;45.77;94750.44;6139237;28;109282;-63
2023/08/01 01:02:18;;;;;;;3.75;2.85;;;;;;;25.62;45.60;94747.31;6124190;28;110262;-75
2023/08/01 01:05:23;;;;;;;3.37;3.07;;;;;;;25.59;45.86;94746.09;6148925;28;109399;-64
2023/08/01 01:08:26;;;;;;;3.33;3.03;;;;;;;25.47;45.80;94740.72;6126025;28;109617;-65
2023/08/01 01:11:29;;;;;;;3.50;3.20;;;;;;;25.47;46.02;94738.03;6137544;28;109067;-64
2023/08/01 01:14:34;;;;;;;4.35;3.28;;;;;;;25.53;46.12;94736.69;6133403;28;108826;-64
2023/08/01 01:17:37;;;;;;;3.20;2.75;;;;;;;25.56;45.84;94736.03;6133534;28;110286;-64
2023/08/01 01:20:41;;;;;;;3.20;2.90;;;;;;;25.60;45.50;94741.50;6126125;28;109746;-64
2023/08/01 01:23:45;;;;;;;3.50;3.20;;;;;;;25.54;45.44;94737.47;6142423;28;109421;-64
2023/08/01 01:26:50;;;;;;;3.10;2.80;;;;;;;25.49;45.44;94727.75;6132981;28;109382;-64
2023/08/01 01:29:54;;;;;;;3.25;2.95;;;;;;;25.45;45.52;94721.53;6133071;28;109696;-63
2023/08/01 01:32:59;;;;;;;3.75;3.30;;;;;;;25.50;45.53;94718.59;6135281;28;109382;-64
2023/08/01 01:36:04;;;;;;;3.13;2.83;;;;;;;25.54;45.16;94716.84;6160788;28;110054;-64
2023/08/01 01:39:07;;;;;;;3.13;2.80;;;;;;;25.51;45.35;94722.06;6121118;28;109180;-64
2023/08/01 01:42:11;;;;;;;3.20;3.00;;;;;;;25.37;45.27;94725.88;6124592;28;110357;-64
2023/08/01 01:45:14;;;;;;;3.50;2.80;;;;;;;25.32;45.39;94720.69;6136576;28;109846;-59
2023/08/01 01:48:17;;;;;;;3.40;3.10;;;;;;;25.41;45.20;94717.97;6136182;28;109230;-59
2023/08/01 01:51:22;;;;;;;3.00;2.80;;;;;;;25.50;45.07;94715.94;6143979;28;109143;-59
2023/08/01 01:54:25;;;;;;;3.20;3.00;;;;;;;25.46;45.17;94715.03;6123432;28;109454;-59
2023/08/01 01:57:28;;;;;;;3.47;2.70;;;;;;;25.41;45.35;94734.03;6132620;28;109158;-59
2023/08/01 02:00:32;;;;;;;3.20;2.90;;;;;;;25.27;45.27;94733.53;6145462;28;109249;-61
2023/08/01 02:03:35;;;;;;;3.83;3.10;;;;;;;25.01;46.10;94739.19;6131911;28;109502;-59
2023/08/01 02:06:40;;;;;;;3.20;2.90;;;;;;;25.17;45.61;94726.72;6144856;28;109074;-59
2023/08/01 02:09:44;;;;;;;4.38;3.97;;;;;;;25.11;46.05;94716.56;6135707;28;109012;-59
2023/08/01 02:12:47;;;;;;;5.70;5.30;;;;;;;25.23;45.55;94721.94;6135790;28;109390;-60
2023/08/01 02:15:50;;;;;;;4.45;4.05;;;;;;;25.35;45.67;94725.41;6115368;28;109292;-59
2023/08/01 02:18:53;;;;;;;3.90;3.60;;;;;;;25.37;45.17;94725.06;6142988;28;110161;-61
2023/08/01 02:21:58;;;;;;;4.30;3.60;;;;;;;25.40;45.24;94729.78;6141308;28;110073;-59
2023/08/01 02:25:01;;;;;;;3.30;3.10;;;;;;;25.45;44.91;94721.53;6153628;28;109424;-59
2023/08/01 02:28:04;;;;;;;3.42;3.13;;;;;;;25.50;45.37;94726.66;6148182;28;110292;-59
2023/08/01 02:31:08;;;;;;;3.50;3.20;;;;;;;25.56;44.91;94733.38;6136546;28;109241;-59
2023/08/01 02:34:11;;;;;;;3.60;3.30;;;;;;;25.40;44.87;94727.13;6137116;28;109084;-59
2023/08/01 02:37:16;;;;;;;3.35;3.05;;;;;;;25.07;45.68;94727.94;6145700;28;110059;-59
2023/08/01 02:40:19;;;;;;;4.20;3.30;;;;;;;25.06;45.85;94722.91;6134428;28;112936;-59
2023/08/01 02:43:22;;;;;;;6.70;6.00;;;;;;;25.19;46.09;94721.03;6148463;28;109116;-59
2023/08/01 02:46:27;;;;;;;25.80;23.70;;;;;;;25.28;45.79;94724.38;6136012;28;109646;-59
2023/08/01 02:49:31;;;;;;;15.65;14.45;;;;;;;25.31;45.46;94721.03;6125760;28;109254;-59
2023/08/01 02:52:35;;;;;;;10.77;9.67;;;;;;;24.99;46.27;94718.09;6139352;28;109382;-59
2023/08/01 02:55:39;;;;;;;6.80;6.20;;;;;;;24.81;46.75;94716.72;6137217;28;110169;-66
2023/08/01 02:58:42;;;;;;;7.10;6.47;;;;;;;25.06;46.32;94718.34;6143569;28;109248;-65
2023/08/01 03:01:45;;;;;;;32.73;30.03;;;;;;;25.17;45.90;94723.25;6127361;28;109290;-66
2023/08/01 03:04:48;;;;;;;9.47;8.67;;;;;;;25.20;45.75;94722.56;6135024;28;109350;-65
2023/08/01 03:07:53;;;;;;;11.73;10.83;;;;;;;25.08;45.77;94723.38;6125297;28;109325;-65
2023/08/01 03:10:56;;;;;;;45.03;41.10;;;;;;;24.89;46.45;94715.84;6139569;28;109153;-65
2023/08/01 03:13:59;;;;;;;14.57;13.27;;;;;;;25.02;45.98;94719.31;6132082;28;109353;-67
2023/08/01 03:17:02;;;;;;;13.02;12.02;;;;;;;25.23;45.47;94716.56;6159718;28;109506;-66
2023/08/01 03:20:10;;;;;;;10.88;10.00;;;;;;;25.33;45.48;94716.91;6138841;28;109666;-66
2023/08/01 03:23:15;;;;;;;9.52;8.73;;;;;;;25.40;44.94;94716.41;6131768;28;110058;-64
2023/08/01 03:26:18;;;;;;;11.05;10.15;;;;;;;25.43;45.19;94720.31;6145102;28;110188;-66
2023/08/01 03:29:21;;;;;;;12.35;11.35;;;;;;;25.43;44.85;94723.75;6147265;28;109135;-73
2023/08/01 03:32:24;;;;;;;13.60;12.60;;;;;;;25.44;45.16;94733.34;6151592;28;109227;-62
2023/08/01 03:35:27;;;;;;;7.25;6.65;;;;;;;25.04;45.65;94738.53;6141278;28;109041;-62
2023/08/01 03:38:32;;;;;;;12.73;11.63;;;;;;;25.11;45.66;94736.09;6152575;28;111182;-62
2023/08/01 03:41:35;;;;;;;30.63;28.33;;;;;;;25.15;45.52;94744.22;6134811;28;109093;-63
2023/08/01 03:44:38;;;;;;;9.25;8.45;;;;;;;24.99;45.73;94744.09;6134811;28;110342;-63
2023/08/01 03:47:42;;;;;;;8.40;7.80;;;;;;;25.03;45.66;94753.00;6142254;28;109855;-62
2023/08/01 03:50:46;;;;;;;10.10;9.20;;;;;;;25.21;45.50;94754.41;6141918;28;109601;-62
2023/08/01 03:53:50;;;;;;;8.38;7.57;;;;;;;25.05;46.38;94748.13;6155042;28;110054;-68
2023/08/01 03:57:13;;;;;;;16.23;14.32;;;;;;;25.13;46.42;94754.50;6147965;28;111657;-63
2023/08/01 04:00:18;;;;;;;14.20;12.02;;;;;;;25.11;46.45;94752.16;6143376;28;109136;-69
2023/08/01 04:03:21;;;;;;;10.63;7.25;;;;;;;24.77;47.50;94747.94;6142899;28;109038;-69
2023/08/01 04:06:24;;;;;;;7.75;6.82;;;;;;;24.63;48.30;94744.72;6131360;28;109128;-60
2023/08/01 04:09:29;;;;;;;9.13;7.20;;;;;;;24.38;48.77;94760.69;6116489;28;109246;-60
2023/08/01 04:12:34;;;;;;;6.10;5.50;;;;;;;24.19;49.04;94757.66;6153384;28;109415;-61
2023/08/01 04:15:37;;;;;;;6.15;5.53;;;;;;;24.26;48.90;94757.94;6125180;28;110232;-60
2023/08/01 04:18:40;;;;;;;7.82;5.70;;;;;;;24.36;49.25;94760.22;6139635;28;109826;-59
2023/08/01 04:21:43;;;;;;;6.10;5.50;;;;;;;24.34;49.53;94761.66;6128909;28;109590;-59
2023/08/01 04:24:48;;;;;;;6.50;5.20;;;;;;;24.43;49.31;94754.34;6124801;28;109410;-59
2023/08/01 04:27:51;;;;;;;5.60;5.00;;;;;;;24.68;48.88;94764.06;6150145;28;110133;-59
2023/08/01 04:30:54;;;;;;;6.30;5.00;;;;;;;24.99;48.43;94765.50;6148839;28;109537;-60
2023/08/01 04:33:57;;;;;;;6.00;5.50;;;;;;;25.06;48.03;94760.41;6140396;28;110317;-60
2023/08/01 04:37:00;;;;;;;5.20;4.70;;;;;;;25.10;47.75;94761.28;6144566;28;109255;-60
2023/08/01 04:40:06;;;;;;;5.60;5.10;;;;;;;25.14;47.86;94758.72;6147474;28;109541;-60
2023/08/01 04:43:10;;;;;;;5.03;4.63;;;;;;;25.13;47.66;94757.16;6118956;28;109327;-60
2023/08/01 04:46:13;;;;;;;5.10;4.60;;;;;;;25.12;47.58;94761.75;6138677;28;109107;-59
2023/08/01 04:49:17;;;;;;;4.95;4.55;;;;;;;25.17;47.44;94763.41;6143234;28;109070;-60
2023/08/01 04:52:20;;;;;;;5.72;5.10;;;;;;;25.04;47.45;94758.06;6162875;28;110663;-60
2023/08/01 04:55:25;;;;;;;6.20;4.90;;;;;;;25.08;47.99;94753.59;6152008;28;110347;-61
2023/08/01 04:58:28;;;;;;;5.50;5.10;;;;;;;25.20;47.33;94749.34;6162085;28;109116;-60
2023/08/01 05:01:31;;;;;;;6.23;5.70;;;;;;;25.20;47.38;94754.72;6156351;28;109400;-60
2023/08/01 05:04:34;;;;;;;5.90;5.50;;;;;;;25.16;47.38;94749.25;6144750;28;109488;-59
2023/08/01 05:07:37;;;;;;;6.80;6.20;;;;;;;25.19;47.21;94751.25;6152464;28;109443;-59
2023/08/01 05:10:42;;;;;;;6.00;5.50;;;;;;;25.15;47.77;94757.63;6161881;28;109126;-59
2023/08/01 05:13:45;;;;;;;5.90;5.40;;;;;;;25.02;48.39;94754.13;6162594;28;110425;-60
2023/08/01 05:16:48;;;;;;;5.60;5.10;;;;;;;25.12;47.79;94755.59;6153744;28;109230;-63
2023/08/01 05:19:51;;;;;;;5.50;5.00;;;;;;;25.03;47.78;94751.16;6160035;28;109644;-63
2023/08/01 05:22:54;;;;;;;32.50;7.23;;;;;;;24.91;48.16;94759.13;6161695;28;109206;-63
2023/08/01 05:25:59;;;;;;;12.90;5.80;;;;;;;24.96;47.88;94756.25;6161464;28;108801;-63
2023/08/01 05:29:02;;;;;;;9.63;5.47;;;;;;;25.05;47.96;94750.81;6151126;28;109162;-63
2023/08/01 05:32:06;;;;;;;8.00;6.88;;;;;;;25.17;47.53;94755.38;6137935;28;109102;-63
2023/08/01 05:35:09;;;;;;;6.90;5.60;;;;;;;25.17;47.16;94756.16;6137812;28;110376;-63
2023/08/01 05:38:12;;;;;;;4.63;4.20;;;;;;;25.13;46.06;94754.50;6137468;28;109389;-64
2023/08/01 05:41:17;;;;;;;5.80;5.20;;;;;;;25.20;47.21;94755.50;6126948;28;109226;-63
2023/08/01 05:44:20;;;;;;;5.43;4.50;;;;;;;25.23;45.75;94752.19;6139424;28;109179;-63
2023/08/01 05:47:23;;;;;;;7.33;6.73;;;;;;;25.12;49.03;94753.72;6159780;28;109209;-63
2023/08/01 05:50:26;;;;;;;5.50;5.00;;;;;;;25.12;48.40;94753.72;6156835;28;109210;-62
2023/08/01 05:53:30;;;;;;;5.60;5.10;;;;;;;25.35;47.69;94752.19;6155535;28;109386;-62
2023/08/01 05:56:34;;;;;;;5.50;5.00;;;;;;;25.49;47.09;94741.16;6161235;28;109513;-62
2023/08/01 05:59:38;;;;;;;7.45;6.75;;;;;;;25.48;48.45;94750.31;6161402;28;110012;-63
2023/08/01 06:02:41;;;;;;;8.55;7.43;;;;;;;25.59;47.19;94750.66;6135359;28;109290;-63
2023/08/01 06:05:44;;;;;;;7.43;5.30;;;;;;;25.63;46.18;94746.97;6136880;28;109029;-62
2023/08/01 06:08:47;;;;;;;6.65;6.05;;;;;;;25.66;46.28;94743.63;6137400;28;110265;-62
2023/08/01 06:11:52;;;;;;;6.90;5.20;;;;;;;25.67;45.98;94749.75;6137141;28;110848;-62
2023/08/01 06:14:55;;;;;;;5.60;4.90;;;;;;;25.79;46.00;94748.97;6133751;28;109676;-63
2023/08/01 06:17:58;;;;;;;5.80;5.30;;;;;;;25.80;45.65;94751.31;6160081;28;109232;-63
2023/08/01 06:21:02;;;;;;;5.40;4.90;;;;;;;25.84;44.74;94746.06;6153390;28;108999;-62
2023/08/01 06:24:05;;;;;;;5.13;4.63;;;;;;;25.88;44.39;94742.41;6136771;28;109130;-62
2023/08/01 06:27:10;;;;;;;7.13;5.93;;;;;;;25.83;45.44;94744.50;6126167;28;110097;-69
2023/08/01 06:30:13;;;;;;;8.10;7.30;;;;;;;25.86;45.71;94741.16;6135970;28;109126;-69
2023/08/01 06:33:16;;;;;;;7.00;6.40;;;;;;;25.96;45.70;94738.00;6136531;28;110095;-69
2023/08/01 06:36:19;;;;;;;8.90;7.30;;;;;;;26.04;45.84;94734.44;6128337;28;109792;-66
2023/08/01 06:39:22;;;;;;;8.88;7.30;;;;;;;26.15;46.08;94740.91;6134992;28;109237;-69
2023/08/01 06:42:27;;;;;;;10.55;8.85;;;;;;;26.30;46.12;94734.06;6112185;28;109200;-66
2023/08/01 06:45:30;;;;;;;9.68;7.40;;;;;;;26.31;45.61;94732.16;6120920;28;110401;-66
2023/08/01 06:48:34;;;;;;;9.17;7.10;;;;;;;26.28;45.44;94734.41;6125177;28;109117;-71
2023/08/01 06:51:37;;;;;;;9.52;8.63;;;;;;;26.31;45.01;94732.16;6136352;28;110416;-68
2023/08/01 06:54:40;;;;;;;9.75;7.97;;;;;;;26.35;44.98;94727.66;6135863;28;109726;-69
2023/08/01 06:57:45;;;;;;;7.43;6.47;;;;;;;26.28;44.90;94731.72;6136118;28;109947;-68
2023/08/01 07:00:48;;;;;;;7.43;6.35;;;;;;;26.07;44.73;94736.47;6124709;28;109126;-68
2023/08/01 07:03:52;;;;;;;7.43;6.57;;;;;;;26.20;44.77;94737.19;6135231;28;109243;-68
2023/08/01 07:06:55;;;;;;;7.60;6.30;;;;;;;26.38;44.87;94737.72;6135668;28;109505;-68
2023/08/01 07:09:58;;;;;;;7.68;5.80;;;;;;;26.34;44.40;94720.72;6131597;28;109319;-68
2023/08/01 07:13:04;;;;;;;6.90;5.43;;;;;;;26.40;44.28;94730.91;6129739;28;109119;-69
2023/08/01 07:16:07;;;;;;;7.23;5.60;;;;;;;26.20;44.57;94721.88;6136206;28;108981;-69
2023/08/01 07:19:10;;;;;;;6.40;5.50;;;;;;;26.33;44.00;94719.16;6134412;28;109388;-69
2023/08/01 07:22:13;;;;;;;8.00;5.10;;;;;;;26.27;43.79;94715.97;6144736;28;109195;-68
2023/08/01 07:25:17;;;;;;;8.30;5.20;;;;;;;26.37;43.36;94714.69;6155191;28;110217;-69
2023/08/01 07:28:21;;;;;;;5.10;4.60;;;;;;;26.43;43.25;94716.03;6135686;28;110189;-69
2023/08/01 07:31:25;;;;;;;5.80;5.00;;;;;;;26.47;43.56;94717.66;6146614;28;110117;-69
2023/08/01 07:34:28;;;;;;;5.90;5.30;;;;;;;26.58;43.01;94712.59;6124332;28;111234;-68
2023/08/01 07:37:31;;;;;;;6.50;5.40;;;;;;;26.71;42.92;94708.75;6157246;28;109153;-63
2023/08/01 07:40:37;;;;;;;5.63;4.73;;;;;;;26.72;42.59;94710.34;6153278;28;109229;-63
2023/08/01 07:43:42;;;;;;;5.93;4.95;;;;;;;26.73;42.35;94709.22;6135284;28;109266;-63
2023/08/01 07:46:45;;;;;;;7.93;5.00;;;;;;;26.57;42.89;94703.00;6126358;28;110233;-63
2023/08/01 07:49:48;;;;;;;7.38;5.40;;;;;;;26.66;42.53;94706.31;6130705;28;110144;-63
2023/08/01 07:52:51;;;;;;;7.35;5.35;;;;;;;26.86;42.07;94710.69;6135020;28;109022;-63
2023/08/01 07:55:54;;;;;;;6.45;5.85;;;;;;;26.86;42.47;94705.31;6125184;28;110658;-63
2023/08/01 07:58:59;;;;;;;8.00;5.75;;;;;;;26.99;42.18;94707.94;6134159;28;109248;-62
2023/08/01 08:02:02;;;;;;;5.70;5.00;;;;;;;27.06;41.64;94708.91;6133877;28;109341;-62
2023/08/01 08:05:06;;;;;;;6.73;5.20;;;;;;;27.05;41.38;94706.53;6133827;28;109184;-62
2023/08/01 08:08:09;;;;;;;6.10;4.55;;;;;;;27.00;40.51;94699.53;6123777;28;109110;-63
2023/08/01 08:11:12;;;;;;;6.30;5.10;;;;;;;26.93;41.50;94695.88;6135339;28;109096;-63
2023/08/01 08:14:17;;;;;;;6.03;4.60;;;;;;;26.92;41.48;94702.38;6138860;28;109270;-63
2023/08/01 08:17:20;;;;;;;5.35;4.35;;;;;;;27.13;40.82;94692.19;6157557;28;109096;-63
2023/08/01 08:20:23;;;;;;;6.38;4.25;;;;;;;27.01;40.49;94687.66;6151595;28;109254;-63
2023/08/01 08:23:26;;;;;;;5.65;4.45;;;;;;;27.00;40.33;94688.00;6162817;28;109723;-63
2023/08/01 08:26:31;;;;;;;5.22;4.13;;;;;;;27.05;40.03;94680.50;6162616;28;109367;-62
2023/08/01 08:29:35;;;;;;;7.40;4.20;;;;;;;26.97;40.76;94680.63;6157905;28;109245;-62
2023/08/01 08:32:38;;;;;;;6.18;3.80;;;;;;;26.98;39.75;94674.16;6137903;28;110070;-63
2023/08/01 08:35:42;;;;;;;4.78;3.50;;;;;;;27.02;40.11;94675.00;6142678;28;109862;-64
2023/08/01 08:38:45;;;;;;;4.50;3.70;;;;;;;27.17;40.41;94666.16;6162656;28;109116;-63
2023/08/01 08:41:49;;;;;;;5.85;4.22;;;;;;;27.24;40.71;94670.94;6138895;28;109092;-63
2023/08/01 08:44:56;;;;;;;6.25;4.20;;;;;;;26.70;41.01;94660.78;6138386;28;109104;-62
2023/08/01 08:48:03;;;;;;;6.03;3.78;;;;;;;27.04;40.30;94652.03;6138896;28;110201;-60
2023/08/01 08:51:08;;;;;;;6.80;4.05;;;;;;;27.14;40.40;94651.53;6143987;28;109033;-60
2023/08/01 08:54:12;;;;;;;4.53;3.85;;;;;;;26.91;40.13;94650.59;6152352;28;108989;-60
2023/08/01 08:57:16;;;;;;;5.10;4.10;;;;;;;26.79;39.50;94656.81;6162252;28;109454;-60
2023/08/01 09:00:21;;;;;;;4.80;3.80;;;;;;;26.78;39.99;94654.47;6162376;28;109548;-60
2023/08/01 09:03:25;;;;;;;6.20;4.05;;;;;;;26.77;39.47;94648.31;6157139;28;109180;-60
2023/08/01 09:06:31;;;;;;;6.95;4.30;;;;;;;26.88;39.42;94643.19;6153189;28;109242;-60
2023/08/01 09:09:36;;;;;;;6.67;4.00;;;;;;;27.24;39.44;94644.84;6123182;28;109968;-59
2023/08/01 09:12:39;;;;;;;4.70;3.88;;;;;;;27.26;39.36;94648.00;6155941;28;109287;-60
2023/08/01 09:15:44;;;;;;;4.70;4.03;;;;;;;27.35;39.52;94632.47;6151771;28;109319;-60
2023/08/01 09:18:49;;;;;;;4.65;3.63;;;;;;;27.48;39.74;94626.97;6162015;28;109282;-59
2023/08/01 09:21:52;;;;;;;5.00;3.60;;;;;;;27.49;39.40;94626.63;6149504;28;109821;-60
2023/08/01 09:24:55;;;;;;;4.57;3.90;;;;;;;27.22;39.78;94625.63;6137628;28;109473;-60
2023/08/01 09:27:58;;;;;;;5.77;3.90;;;;;;;26.94;40.18;94625.72;6146709;28;110300;-60
2023/08/01 09:31:03;;;;;;;5.33;3.90;;;;;;;26.95;40.25;94626.50;6158191;28;110231;-60
2023/08/01 09:34:08;;;;;;;4.40;4.00;;;;;;;27.25;40.05;94624.91;6137234;28;109214;-60
2023/08/01 09:37:11;;;;;;;4.00;3.60;;;;;;;27.22;40.22;94617.56;6137454;28;109345;-60
2023/08/01 09:40:15;;;;;;;4.10;3.80;;;;;;;27.10;39.86;94623.81;6127354;28;109461;-60
2023/08/01 09:43:18;;;;;;;6.10;4.68;;;;;;;26.93;40.64;94618.00;6137497;28;109239;-60
2023/08/01 09:46:23;;;;;;;4.80;4.30;;;;;;;26.92;39.93;94617.25;6142604;28;109080;-60
2023/08/01 09:49:28;;;;;;;5.43;4.30;;;;;;;27.03;40.28;94612.88;6152452;28;109034;-63
2023/08/01 09:52:31;;;;;;;5.38;4.20;;;;;;;26.98;40.56;94609.69;6159613;28;109110;-61
2023/08/01 09:55:35;;;;;;;4.35;3.95;;;;;;;27.24;40.10;94601.09;6161682;28;110285;-60
2023/08/01 09:58:39;;;;;;;5.25;4.25;;;;;;;27.44;39.67;94592.75;6160988;28;109088;-60
2023/08/01 10:01:45;;;;;;;4.47;4.00;;;;;;;27.58;39.15;94586.91;6146072;28;109450;-61
2023/08/01 10:04:49;;;;;;;14.10;6.60;;;;;;;27.65;39.60;94578.97;6138098;28;109172;-61
2023/08/01 10:07:54;;;;;;;16.73;7.30;;;;;;;27.73;39.00;94580.69;6137472;28;109350;-61
2023/08/01 10:10:57;;;;;;;14.80;7.10;;;;;;;27.78;39.07;94571.56;6137116;28;109322;-61
2023/08/01 10:14:03;;;;;;;13.98;6.60;;;;;;;27.84;39.26;94558.59;6127364;28;109285;-61
2023/08/01 10:17:09;;;;;;;11.95;6.30;;;;;;;27.82;39.14;94561.66;6147206;28;109138;-61
2023/08/01 10:20:14;;;;;;;12.57;6.10;;;;;;;27.87;39.73;94553.31;6161734;28;110156;-65
2023/08/01 10:23:18;;;;;;;10.70;6.07;;;;;;;27.86;39.68;94557.13;6136122;28;110196;-61
2023/08/01 10:26:22;;;;;;;8.70;5.80;;;;;;;27.82;39.51;94550.88;6131703;28;109777;-60
2023/08/01 10:29:36;;;;;;;9.88;5.78;;;;;;;27.88;40.11;94557.56;6136673;28;109102;-60
2023/08/01 10:32:41;;;;;;;10.27;6.00;;;;;;;27.93;39.53;94561.91;6140277;28;110041;-60
2023/08/01 10:35:44;;;;;;;6.95;5.00;;;;;;;27.93;40.00;94548.44;6124408;28;109019;-60
2023/08/01 10:38:49;;;;;;;7.38;4.97;;;;;;;27.92;39.87;94546.88;6158725;28;109125;-60
2023/08/01 10:41:59;;;;;;;7.67;5.70;;;;;;;27.90;39.42;94533.81;6160264;28;109264;-60
2023/08/01 10:45:02;;;;;;;7.45;5.10;;;;;;;27.89;39.96;94529.56;6161015;28;110228;-65
2023/08/01 10:48:11;;;;;;;6.30;5.00;;;;;;;27.89;39.65;94529.56;6133261;28;109117;-60
2023/08/01 10:51:14;;;;;;;5.30;4.80;;;;;;;27.87;40.12;94523.72;6137076;28;109056;-60
2023/08/01 10:54:22;;;;;;;5.75;5.10;;;;;;;27.83;40.48;94520.16;6159615;28;109395;-60
2023/08/01 10:57:25;;;;;;;5.80;5.10;;;;;;;27.82;40.35;94517.84;6144681;28;110546;-61
2023/08/01 11:00:28;;;;;;;6.20;5.27;;;;;;;27.82;40.31;94515.16;6130698;28;109272;-60
2023/08/01 11:03:41;;;;;;;5.97;5.10;;;;;;;27.82;40.21;94515.16;6137631;28;109318;-60
2023/08/01 11:06:46;;;;;;;5.60;5.10;;;;;;;27.86;40.05;94511.41;6140322;28;108979;-65
2023/08/01 11:09:50;;;;;;;5.53;5.03;;;;;;;27.86;40.36;94507.91;6148597;28;109337;-60
2023/08/01 11:12:53;;;;;;;6.03;5.07;;;;;;;27.87;39.90;94496.06;6159520;28;109308;-60
2023/08/01 11:15:56;;;;;;;5.72;5.00;;;;;;;27.87;40.04;94498.75;6159879;28;109098;-60
2023/08/01 11:19:01;;;;;;;5.30;4.80;;;;;;;27.85;39.81;94493.69;6137566;28;109232;-60
2023/08/01 11:22:10;;;;;;;5.65;4.95;;;;;;;27.82;40.50;94480.97;6125745;28;109533;-60
2023/08/01 11:25:13;;;;;;;5.28;4.88;;;;;;;27.83;40.08;94487.13;6134577;28;109601;-60
2023/08/01 11:28:18;;;;;;;5.60;4.80;;;;;;;27.80;40.67;94483.25;6150978;28;109336;-60
2023/08/01 11:31:21;;;;;;;5.28;4.78;;;;;;;27.83;40.16;94487.91;6155213;28;110209;-60
2023/08/01 11:34:26;;;;;;;6.10;5.00;;;;;;;27.80;40.15;94477.09;6105955;28;109832;-60
2023/08/01 11:37:30;;;;;;;5.72;5.22;;;;;;;27.74;40.31;94468.53;6120201;28;110033;-60
2023/08/01 11:40:34;;;;;;;7.73;5.10;;;;;;;27.73;39.68;94467.75;6135031;28;109157;-60
2023/08/01 11:43:41;;;;;;;5.75;5.20;;;;;;;27.73;39.99;94467.00;6124817;28;109292;-59
2023/08/01 11:46:44;;;;;;;6.80;5.40;;;;;;;27.72;39.98;94466.22;6135118;28;109194;-60
2023/08/01 11:49:50;;;;;;;6.00;5.50;;;;;;;27.74;40.58;94463.16;6135109;28;109483;-59
2023/08/01 11:52:54;;;;;;;6.57;5.87;;;;;;;27.70;39.82;94459.59;6135044;28;109495;-60
2023/08/01 11:55:57;;;;;;;6.88;6.25;;;;;;;27.72;40.57;94451.97;6123782;28;109267;-60
2023/08/01 11:59:08;;;;;;;7.20;6.50;;;;;;;27.62;40.51;94449.88;6135070;28;109671;-61
2023/08/01 12:02:12;;;;;;;6.63;5.70;;;;;;;27.65;40.50;94439.19;6134022;28;109632;-60
2023/08/01 12:05:23;;;;;;;6.68;6.18;;;;;;;27.62;40.19;94439.13;6130051;28;110657;-60
2023/08/01 12:08:33;;;;;;;6.57;5.97;;;;;;;27.64;39.94;94437.63;6143849;28;109706;-60
2023/08/01 12:11:36;;;;;;;5.93;5.43;;;;;;;27.62;40.56;94433.75;6159121;28;109283;-59
2023/08/01 12:14:42;;;;;;;6.20;5.70;;;;;;;27.59;40.34;94421.78;6110934;28;109102;-59
2023/08/01 12:17:46;;;;;;;6.20;5.70;;;;;;;27.63;40.18;94422.63;6109110;28;109528;-68
2023/08/01 12:20:50;;;;;;;6.40;5.80;;;;;;;27.61;40.69;94416.84;6134585;28;109157;-68
2023/08/01 12:23:53;;;;;;;5.80;5.20;;;;;;;27.65;40.68;94422.28;6152142;28;109259;-66
2023/08/01 12:26:57;;;;;;;5.80;5.30;;;;;;;27.68;40.50;94416.94;6155987;28;109160;-66
2023/08/01 12:30:00;;;;;;;5.72;5.22;;;;;;;27.64;40.59;94407.28;6124063;28;109604;-66
2023/08/01 12:33:03;;;;;;;5.75;5.25;;;;;;;27.66;40.91;94411.16;6144897;28;109936;-67
2023/08/01 12:36:08;;;;;;;6.13;5.60;;;;;;;27.66;40.75;94400.41;6158314;28;109100;-69
2023/08/01 12:39:12;;;;;;;6.00;5.40;;;;;;;27.69;40.53;94401.59;6155182;28;109149;-65
2023/08/01 12:42:15;;;;;;;6.10;5.50;;;;;;;27.65;40.57;94395.38;6151974;28;109073;-67
2023/08/01 12:45:18;;;;;;;5.50;5.00;;;;;;;27.63;40.56;94387.69;6158577;28;109134;-67
2023/08/01 12:48:21;;;;;;;5.80;5.30;;;;;;;27.63;40.46;94390.38;6158244;28;109272;-67
2023/08/01 12:51:26;;;;;;;5.50;5.10;;;;;;;27.64;41.10;94389.22;6148048;28;109246;-67
2023/08/01 12:54:29;;;;;;;5.95;5.35;;;;;;;27.66;40.43;94388.88;6137369;28;110099;-67
2023/08/01 12:57:32;;;;;;;5.40;4.90;;;;;;;27.68;40.90;94387.38;6139828;28;110163;-66
2023/08/01 13:00:36;;;;;;;5.50;5.00;;;;;;;27.67;41.26;94382.34;6162240;28;109291;-66
2023/08/01 13:03:39;;;;;;;5.20;4.70;;;;;;;27.66;41.09;94380.81;6134887;28;109596;-66
2023/08/01 13:06:45;;;;;;;4.70;4.30;;;;;;;27.66;40.82;94386.19;6138216;28;109320;-66
2023/08/01 13:09:48;;;;;;;5.50;5.00;;;;;;;27.65;41.05;94374.66;6137835;28;109113;-68
2023/08/01 13:12:51;;;;;;;5.37;4.97;;;;;;;27.66;40.69;94378.91;6138252;28;109167;-67
2023/08/01 13:15:56;;;;;;;5.10;4.60;;;;;;;27.63;41.57;94368.88;6127455;28;110028;-67
2023/08/01 13:19:00;;;;;;;5.63;5.13;;;;;;;27.66;41.04;94359.31;6139740;28;109413;-67
2023/08/01 13:22:04;;;;;;;5.75;5.25;;;;;;;27.68;40.79;94357.03;6138011;28;110317;-67
2023/08/01 13:25:09;;;;;;;5.43;4.87;;;;;;;27.70;40.72;94352.06;6131990;28;109622;-67
2023/08/01 13:28:12;;;;;;;5.30;4.90;;;;;;;27.70;40.84;94349.38;6133202;28;109127;-68
2023/08/01 13:31:15;;;;;;;5.20;4.80;;;;;;;27.70;40.87;94350.16;6137970;28;108855;-67
2023/08/01 13:34:18;;;;;;;5.57;5.07;;;;;;;27.70;40.86;94347.47;6137931;28;109072;-68
2023/08/01 13:37:23;;;;;;;5.00;4.60;;;;;;;27.69;41.19;94347.81;6128231;28;110655;-69
2023/08/01 13:40:26;;;;;;;4.93;4.53;;;;;;;27.70;40.95;94342.09;6137683;28;109098;-70
2023/08/01 13:43:30;;;;;;;5.30;4.80;;;;;;;27.68;40.68;94347.03;6138028;28;108999;-67
2023/08/01 13:46:33;;;;;;;5.70;5.20;;;;;;;27.70;40.68;94346.69;6137994;28;109438;-67
2023/08/01 13:49:37;;;;;;;5.20;4.80;;;;;;;27.68;40.38;94340.91;6127453;28;109026;-68
2023/08/01 13:52:43;;;;;;;5.10;4.70;;;;;;;27.67;40.43;94334.75;6139987;28;109166;-67
2023/08/01 13:55:46;;;;;;;5.03;4.63;;;;;;;27.70;40.66;94341.31;6162520;28;112449;-69
2023/08/01 13:58:49;;;;;;;5.40;4.90;;;;;;;27.71;40.61;94334.78;6156923;28;112791;-67
2023/08/01 14:01:53;;;;;;;6.10;4.50;;;;;;;27.67;40.88;94328.59;6148899;28;109373;-65
2023/08/01 14:04:56;;;;;;;8.27;6.27;;;;;;;27.58;40.78;94328.06;6157783;28;110219;-66
2023/08/01 14:08:02;;;;;;;6.73;6.13;;;;;;;26.47;41.16;94322.44;6156524;28;109609;-65
2023/08/01 14:11:06;;;;;;;8.70;7.90;;;;;;;25.18;41.80;94328.50;6125924;28;111017;-65
2023/08/01 14:14:09;;;;;;;9.30;8.50;;;;;;;24.49;41.61;94325.81;6137255;28;110136;-66